sensor_id;sensor_type;location;lat;lon;timestamp;temperature;humidity
12287;DHT22;6206;53.100;11.098;2022-08-03T00:00:56;23.20;99.90
12287;DHT22;6206;53.100;11.098;2022-08-03T00:03:22;22.90;99.90
12287;DHT22;6206;53.100;11.098;2022-08-03T00:05:51;24.70;99.90
12287;DHT22;6206;53.100;11.098;2022-08-03T00:08:17;21.80;99.90
12287;DHT22;6206;53.100;11.098;2022-08-03T00:10:44;22.50;99.90
12287;DHT22;6206;53.100;11.098;2022-08-03T00:13:11;21.80;99.90
12287;DHT22;6206;53.100;11.098;2022-08-03T00:15:38;22.00;99.90
12287;DHT22;6206;53.100;11.098;2022-08-03T00:18:05;22.80;99.90
12287;DHT22;6206;53.100;11.098;2022-08-03T00:20:32;22.20;99.90
12287;DHT22;6206;53.100;11.098;2022-08-03T00:23:00;22.30;99.90
12287;DHT22;6206;53.100;11.098;2022-08-03T00:25:26;22.10;99.90
12287;DHT22;6206;53.100;11.098;2022-08-03T00:27:53;24.30;99.90
12287;DHT22;6206;53.100;11.098;2022-08-03T00:30:20;23.80;99.90
12287;DHT22;6206;53.100;11.098;2022-08-03T00:32:46;22.30;99.90
12287;DHT22;6206;53.100;11.098;2022-08-03T00:35:13;22.30;99.90
12287;DHT22;6206;53.100;11.098;2022-08-03T00:37:40;22.90;99.90
12287;DHT22;6206;53.100;11.098;2022-08-03T00:40:10;23.10;99.90
12287;DHT22;6206;53.100;11.098;2022-08-03T00:42:46;21.90;99.90
12287;DHT22;6206;53.100;11.098;2022-08-03T00:45:13;21.70;99.90
12287;DHT22;6206;53.100;11.098;2022-08-03T00:47:39;21.60;99.90
12287;DHT22;6206;53.100;11.098;2022-08-03T00:50:07;22.50;99.90
12287;DHT22;6206;53.100;11.098;2022-08-03T00:52:33;21.60;99.90
12287;DHT22;6206;53.100;11.098;2022-08-03T00:55:00;22.40;99.90
12287;DHT22;6206;53.100;11.098;2022-08-03T00:57:29;21.60;99.90
12287;DHT22;6206;53.100;11.098;2022-08-03T00:59:57;21.50;99.90
12287;DHT22;6206;53.100;11.098;2022-08-03T01:02:24;23.30;99.90
12287;DHT22;6206;53.100;11.098;2022-08-03T01:04:51;23.70;99.90
12287;DHT22;6206;53.100;11.098;2022-08-03T01:07:24;21.70;99.90
12287;DHT22;6206;53.100;11.098;2022-08-03T01:09:59;21.50;99.90
12287;DHT22;6206;53.100;11.098;2022-08-03T01:12:34;21.40;99.90
12287;DHT22;6206;53.100;11.098;2022-08-03T01:15:09;21.60;99.90
12287;DHT22;6206;53.100;11.098;2022-08-03T01:17:45;21.50;99.90
12287;DHT22;6206;53.100;11.098;2022-08-03T01:20:16;24.20;99.90
12287;DHT22;6206;53.100;11.098;2022-08-03T01:25:50;21.60;99.90
12287;DHT22;6206;53.100;11.098;2022-08-03T01:28:44;22.50;99.90
12287;DHT22;6206;53.100;11.098;2022-08-03T01:31:19;23.40;99.90
12287;DHT22;6206;53.100;11.098;2022-08-03T01:33:51;21.70;99.90
12287;DHT22;6206;53.100;11.098;2022-08-03T01:36:25;24.10;99.90
12287;DHT22;6206;53.100;11.098;2022-08-03T01:38:56;21.80;99.90
12287;DHT22;6206;53.100;11.098;2022-08-03T01:41:28;23.60;99.90
12287;DHT22;6206;53.100;11.098;2022-08-03T01:43:57;21.70;99.90
12287;DHT22;6206;53.100;11.098;2022-08-03T01:46:27;21.70;99.90
12287;DHT22;6206;53.100;11.098;2022-08-03T01:48:55;21.90;99.90
12287;DHT22;6206;53.100;11.098;2022-08-03T01:51:23;21.60;99.90
12287;DHT22;6206;53.100;11.098;2022-08-03T01:53:50;22.60;99.90
12287;DHT22;6206;53.100;11.098;2022-08-03T01:56:21;21.50;99.90
12287;DHT22;6206;53.100;11.098;2022-08-03T01:58:51;22.60;99.90
12287;DHT22;6206;53.100;11.098;2022-08-03T02:01:19;21.40;99.90
12287;DHT22;6206;53.100;11.098;2022-08-03T02:03:48;23.20;99.90
12287;DHT22;6206;53.100;11.098;2022-08-03T02:06:16;22.20;99.90
12287;DHT22;6206;53.100;11.098;2022-08-03T02:08:45;21.10;99.90
12287;DHT22;6206;53.100;11.098;2022-08-03T02:11:14;21.60;99.90
12287;DHT22;6206;53.100;11.098;2022-08-03T02:13:41;23.50;99.90
12287;DHT22;6206;53.100;11.098;2022-08-03T02:16:10;22.10;99.90
12287;DHT22;6206;53.100;11.098;2022-08-03T02:18:39;21.10;99.90
12287;DHT22;6206;53.100;11.098;2022-08-03T02:21:08;21.70;99.90
12287;DHT22;6206;53.100;11.098;2022-08-03T02:23:35;21.20;99.90
12287;DHT22;6206;53.100;11.098;2022-08-03T02:26:05;21.20;99.90
12287;DHT22;6206;53.100;11.098;2022-08-03T02:28:35;21.60;99.90
12287;DHT22;6206;53.100;11.098;2022-08-03T02:31:06;22.60;99.90
12287;DHT22;6206;53.100;11.098;2022-08-03T02:33:36;18.10;99.90
12287;DHT22;6206;53.100;11.098;2022-08-03T02:36:04;22.50;99.90
12287;DHT22;6206;53.100;11.098;2022-08-03T02:38:35;21.00;99.90
12287;DHT22;6206;53.100;11.098;2022-08-03T02:41:04;25.00;99.90
12287;DHT22;6206;53.100;11.098;2022-08-03T02:43:34;24.90;99.90
12287;DHT22;6206;53.100;11.098;2022-08-03T02:46:01;23.90;99.90
12287;DHT22;6206;53.100;11.098;2022-08-03T02:48:29;20.90;99.90
12287;DHT22;6206;53.100;11.098;2022-08-03T02:50:59;21.60;99.90
12287;DHT22;6206;53.100;11.098;2022-08-03T02:53:28;25.00;99.90
12287;DHT22;6206;53.100;11.098;2022-08-03T02:55:58;19.50;99.90
12287;DHT22;6206;53.100;11.098;2022-08-03T02:58:26;25.00;99.90
12287;DHT22;6206;53.100;11.098;2022-08-03T03:00:54;21.80;99.90
12287;DHT22;6206;53.100;11.098;2022-08-03T03:03:21;23.40;99.90
12287;DHT22;6206;53.100;11.098;2022-08-03T03:05:49;20.80;99.90
12287;DHT22;6206;53.100;11.098;2022-08-03T03:08:18;20.70;99.90
12287;DHT22;6206;53.100;11.098;2022-08-03T03:10:45;21.80;99.90
12287;DHT22;6206;53.100;11.098;2022-08-03T03:13:14;24.70;99.90
12287;DHT22;6206;53.100;11.098;2022-08-03T03:15:42;21.60;99.90
12287;DHT22;6206;53.100;11.098;2022-08-03T03:18:11;20.50;99.90
12287;DHT22;6206;53.100;11.098;2022-08-03T03:20:38;24.90;99.90
12287;DHT22;6206;53.100;11.098;2022-08-03T03:23:08;20.20;99.90
12287;DHT22;6206;53.100;11.098;2022-08-03T03:25:35;22.20;99.90
12287;DHT22;6206;53.100;11.098;2022-08-03T03:28:03;20.20;99.90
12287;DHT22;6206;53.100;11.098;2022-08-03T03:30:32;20.30;99.90
12287;DHT22;6206;53.100;11.098;2022-08-03T03:32:59;24.50;99.90
12287;DHT22;6206;53.100;11.098;2022-08-03T03:35:27;23.10;99.90
12287;DHT22;6206;53.100;11.098;2022-08-03T03:37:53;21.50;99.90
12287;DHT22;6206;53.100;11.098;2022-08-03T03:40:20;21.60;99.90
12287;DHT22;6206;53.100;11.098;2022-08-03T03:42:48;20.30;99.90
12287;DHT22;6206;53.100;11.098;2022-08-03T03:45:15;24.70;99.90
12287;DHT22;6206;53.100;11.098;2022-08-03T03:47:43;21.40;99.90
12287;DHT22;6206;53.100;11.098;2022-08-03T03:50:10;20.30;99.90
12287;DHT22;6206;53.100;11.098;2022-08-03T03:52:37;20.30;99.90
12287;DHT22;6206;53.100;11.098;2022-08-03T03:55:04;24.80;99.90
12287;DHT22;6206;53.100;11.098;2022-08-03T03:57:33;20.20;99.90
12287;DHT22;6206;53.100;11.098;2022-08-03T03:59:59;20.20;99.90
12287;DHT22;6206;53.100;11.098;2022-08-03T04:02:26;20.80;99.90
12287;DHT22;6206;53.100;11.098;2022-08-03T04:04:54;20.10;99.90
12287;DHT22;6206;53.100;11.098;2022-08-03T04:07:47;24.60;99.90
12287;DHT22;6206;53.100;11.098;2022-08-03T04:10:35;20.20;99.90
12287;DHT22;6206;53.100;11.098;2022-08-03T04:13:22;20.70;99.90
12287;DHT22;6206;53.100;11.098;2022-08-03T04:15:49;20.20;99.90
12287;DHT22;6206;53.100;11.098;2022-08-03T04:18:17;24.70;99.90
12287;DHT22;6206;53.100;11.098;2022-08-03T04:20:47;20.20;99.90
12287;DHT22;6206;53.100;11.098;2022-08-03T04:23:16;24.50;99.90
12287;DHT22;6206;53.100;11.098;2022-08-03T04:25:46;20.10;99.90
12287;DHT22;6206;53.100;11.098;2022-08-03T04:28:14;24.10;99.90
12287;DHT22;6206;53.100;11.098;2022-08-03T04:30:44;24.80;99.90
12287;DHT22;6206;53.100;11.098;2022-08-03T04:33:14;20.20;99.90
12287;DHT22;6206;53.100;11.098;2022-08-03T04:35:43;24.20;99.90
12287;DHT22;6206;53.100;11.098;2022-08-03T04:38:13;20.10;99.90
12287;DHT22;6206;53.100;11.098;2022-08-03T04:40:42;23.20;99.90
12287;DHT22;6206;53.100;11.098;2022-08-03T04:43:10;20.20;99.90
12287;DHT22;6206;53.100;11.098;2022-08-03T04:45:38;24.10;99.90
12287;DHT22;6206;53.100;11.098;2022-08-03T04:48:06;20.30;99.90
12287;DHT22;6206;53.100;11.098;2022-08-03T04:50:33;20.30;99.90
12287;DHT22;6206;53.100;11.098;2022-08-03T04:53:00;23.30;99.90
12287;DHT22;6206;53.100;11.098;2022-08-03T04:55:30;20.40;99.90
12287;DHT22;6206;53.100;11.098;2022-08-03T04:57:57;22.60;99.90
12287;DHT22;6206;53.100;11.098;2022-08-03T05:00:24;20.40;99.90
12287;DHT22;6206;53.100;11.098;2022-08-03T05:02:52;20.40;99.90
12287;DHT22;6206;53.100;11.098;2022-08-03T05:05:20;20.50;99.90
12287;DHT22;6206;53.100;11.098;2022-08-03T05:07:47;23.60;99.90
12287;DHT22;6206;53.100;11.098;2022-08-03T05:10:14;20.50;99.90
12287;DHT22;6206;53.100;11.098;2022-08-03T05:15:10;20.60;99.90
12287;DHT22;6206;53.100;11.098;2022-08-03T05:17:37;21.10;99.90
12287;DHT22;6206;53.100;11.098;2022-08-03T05:20:05;24.90;99.90
12287;DHT22;6206;53.100;11.098;2022-08-03T05:22:32;20.90;99.90
12287;DHT22;6206;53.100;11.098;2022-08-03T05:25:00;24.80;99.90
12287;DHT22;6206;53.100;11.098;2022-08-03T05:27:26;23.80;99.90
12287;DHT22;6206;53.100;11.098;2022-08-03T05:29:54;20.70;99.90
12287;DHT22;6206;53.100;11.098;2022-08-03T05:32:21;24.20;99.90
12287;DHT22;6206;53.100;11.098;2022-08-03T05:34:47;23.40;99.90
12287;DHT22;6206;53.100;11.098;2022-08-03T05:37:14;25.40;99.90
12287;DHT22;6206;53.100;11.098;2022-08-03T05:39:41;22.80;99.90
12287;DHT22;6206;53.100;11.098;2022-08-03T05:42:07;24.90;99.90
12287;DHT22;6206;53.100;11.098;2022-08-03T05:44:35;25.60;99.90
12287;DHT22;6206;53.100;11.098;2022-08-03T05:47:04;24.80;99.90
12287;DHT22;6206;53.100;11.098;2022-08-03T05:49:31;21.40;99.90
12287;DHT22;6206;53.100;11.098;2022-08-03T05:51:57;21.50;99.90
12287;DHT22;6206;53.100;11.098;2022-08-03T05:54:24;21.50;99.90
12287;DHT22;6206;53.100;11.098;2022-08-03T05:56:51;24.80;99.90
12287;DHT22;6206;53.100;11.098;2022-08-03T05:59:18;23.10;99.90
12287;DHT22;6206;53.100;11.098;2022-08-03T06:01:46;24.20;99.90
12287;DHT22;6206;53.100;11.098;2022-08-03T06:04:14;21.80;99.90
12287;DHT22;6206;53.100;11.098;2022-08-03T06:06:41;23.00;99.90
12287;DHT22;6206;53.100;11.098;2022-08-03T06:09:08;24.00;99.90
12287;DHT22;6206;53.100;11.098;2022-08-03T06:11:35;22.10;99.90
12287;DHT22;6206;53.100;11.098;2022-08-03T06:14:02;25.50;99.90
12287;DHT22;6206;53.100;11.098;2022-08-03T06:16:29;25.10;99.90
12287;DHT22;6206;53.100;11.098;2022-08-03T06:18:55;22.40;99.90
12287;DHT22;6206;53.100;11.098;2022-08-03T06:21:23;26.20;99.90
12287;DHT22;6206;53.100;11.098;2022-08-03T06:23:50;25.40;99.90
12287;DHT22;6206;53.100;11.098;2022-08-03T06:26:17;22.70;99.90
12287;DHT22;6206;53.100;11.098;2022-08-03T06:28:44;22.70;99.90
12287;DHT22;6206;53.100;11.098;2022-08-03T06:31:11;25.00;99.90
12287;DHT22;6206;53.100;11.098;2022-08-03T06:33:38;26.50;99.90
12287;DHT22;6206;53.100;11.098;2022-08-03T06:36:05;22.90;99.90
12287;DHT22;6206;53.100;11.098;2022-08-03T06:38:33;23.00;99.90
12287;DHT22;6206;53.100;11.098;2022-08-03T06:41:00;24.80;99.90
12287;DHT22;6206;53.100;11.098;2022-08-03T06:43:26;23.70;99.90
12287;DHT22;6206;53.100;11.098;2022-08-03T06:45:53;24.80;99.90
12287;DHT22;6206;53.100;11.098;2022-08-03T06:48:19;26.20;99.90
12287;DHT22;6206;53.100;11.098;2022-08-03T06:50:46;26.10;99.90
12287;DHT22;6206;53.100;11.098;2022-08-03T06:53:13;24.50;99.90
12287;DHT22;6206;53.100;11.098;2022-08-03T06:55:41;24.30;99.90
12287;DHT22;6206;53.100;11.098;2022-08-03T06:58:07;24.00;99.90
12287;DHT22;6206;53.100;11.098;2022-08-03T07:00:34;25.20;99.90
12287;DHT22;6206;53.100;11.098;2022-08-03T07:03:01;23.50;99.90
12287;DHT22;6206;53.100;11.098;2022-08-03T07:05:27;26.30;99.90
12287;DHT22;6206;53.100;11.098;2022-08-03T07:07:55;25.90;99.90
12287;DHT22;6206;53.100;11.098;2022-08-03T07:10:23;23.90;99.90
12287;DHT22;6206;53.100;11.098;2022-08-03T07:12:51;25.20;99.90
12287;DHT22;6206;53.100;11.098;2022-08-03T07:15:18;26.90;99.90
12287;DHT22;6206;53.100;11.098;2022-08-03T07:17:45;24.50;99.90
12287;DHT22;6206;53.100;11.098;2022-08-03T07:20:12;24.80;99.90
12287;DHT22;6206;53.100;11.098;2022-08-03T07:22:39;25.60;99.90
12287;DHT22;6206;53.100;11.098;2022-08-03T07:25:09;24.90;99.90
12287;DHT22;6206;53.100;11.098;2022-08-03T07:27:36;25.00;99.90
12287;DHT22;6206;53.100;11.098;2022-08-03T07:30:07;25.10;99.90
12287;DHT22;6206;53.100;11.098;2022-08-03T07:32:34;25.10;99.90
12287;DHT22;6206;53.100;11.098;2022-08-03T07:35:01;27.10;99.90
12287;DHT22;6206;53.100;11.098;2022-08-03T07:37:29;25.30;99.90
12287;DHT22;6206;53.100;11.098;2022-08-03T07:39:56;26.50;99.90
12287;DHT22;6206;53.100;11.098;2022-08-03T07:42:22;25.40;99.90
12287;DHT22;6206;53.100;11.098;2022-08-03T07:44:49;25.60;99.90
12287;DHT22;6206;53.100;11.098;2022-08-03T07:47:18;25.60;99.90
12287;DHT22;6206;53.100;11.098;2022-08-03T07:49:46;27.10;99.90
12287;DHT22;6206;53.100;11.098;2022-08-03T07:52:12;25.70;99.90
12287;DHT22;6206;53.100;11.098;2022-08-03T07:54:57;26.70;99.90
12287;DHT22;6206;53.100;11.098;2022-08-03T07:57:24;29.20;99.90
12287;DHT22;6206;53.100;11.098;2022-08-03T07:59:51;26.20;99.90
12287;DHT22;6206;53.100;11.098;2022-08-03T08:02:19;26.40;99.90
12287;DHT22;6206;53.100;11.098;2022-08-03T08:04:46;26.60;99.90
12287;DHT22;6206;53.100;11.098;2022-08-03T08:07:13;26.70;99.90
12287;DHT22;6206;53.100;11.098;2022-08-03T08:09:40;27.60;99.90
12287;DHT22;6206;53.100;11.098;2022-08-03T08:12:07;26.80;99.90
12287;DHT22;6206;53.100;11.098;2022-08-03T08:14:35;26.90;99.90
12287;DHT22;6206;53.100;11.098;2022-08-03T08:17:02;27.00;99.90
12287;DHT22;6206;53.100;11.098;2022-08-03T08:19:30;28.30;99.90
12287;DHT22;6206;53.100;11.098;2022-08-03T08:21:57;27.30;99.90
12287;DHT22;6206;53.100;11.098;2022-08-03T08:24:24;30.00;99.90
12287;DHT22;6206;53.100;11.098;2022-08-03T08:26:51;27.40;99.90
12287;DHT22;6206;53.100;11.098;2022-08-03T08:29:17;30.60;99.90
12287;DHT22;6206;53.100;11.098;2022-08-03T08:31:47;28.40;99.90
12287;DHT22;6206;53.100;11.098;2022-08-03T08:34:14;27.60;99.90
12287;DHT22;6206;53.100;11.098;2022-08-03T08:36:42;27.70;99.90
12287;DHT22;6206;53.100;11.098;2022-08-03T08:39:09;29.20;99.90
12287;DHT22;6206;53.100;11.098;2022-08-03T08:41:36;28.10;99.90
12287;DHT22;6206;53.100;11.098;2022-08-03T08:44:03;27.60;99.90
12287;DHT22;6206;53.100;11.098;2022-08-03T08:46:33;27.70;99.90
12287;DHT22;6206;53.100;11.098;2022-08-03T08:48:59;28.10;99.90
12287;DHT22;6206;53.100;11.098;2022-08-03T08:51:29;27.90;99.90
12287;DHT22;6206;53.100;11.098;2022-08-03T08:54:01;28.00;99.90
12287;DHT22;6206;53.100;11.098;2022-08-03T08:56:29;28.10;99.90
12287;DHT22;6206;53.100;11.098;2022-08-03T08:58:58;28.30;99.90
12287;DHT22;6206;53.100;11.098;2022-08-03T09:01:26;28.50;99.90
12287;DHT22;6206;53.100;11.098;2022-08-03T09:03:52;28.80;99.90
12287;DHT22;6206;53.100;11.098;2022-08-03T09:06:19;28.60;99.90
12287;DHT22;6206;53.100;11.098;2022-08-03T09:08:46;28.40;99.90
12287;DHT22;6206;53.100;11.098;2022-08-03T09:11:14;29.10;99.90
12287;DHT22;6206;53.100;11.098;2022-08-03T09:13:41;28.50;99.90
12287;DHT22;6206;53.100;11.098;2022-08-03T09:16:10;28.80;99.90
12287;DHT22;6206;53.100;11.098;2022-08-03T09:18:37;28.90;99.90
12287;DHT22;6206;53.100;11.098;2022-08-03T09:21:12;29.00;99.90
12287;DHT22;6206;53.100;11.098;2022-08-03T09:23:43;29.20;99.90
12287;DHT22;6206;53.100;11.098;2022-08-03T09:26:10;31.00;99.90
12287;DHT22;6206;53.100;11.098;2022-08-03T09:28:38;30.70;99.90
12287;DHT22;6206;53.100;11.098;2022-08-03T09:31:06;29.30;99.90
12287;DHT22;6206;53.100;11.098;2022-08-03T09:33:45;31.00;99.90
12287;DHT22;6206;53.100;11.098;2022-08-03T09:36:37;29.50;99.90
12287;DHT22;6206;53.100;11.098;2022-08-03T09:39:06;29.70;99.90
12287;DHT22;6206;53.100;11.098;2022-08-03T09:41:35;30.00;99.90
12287;DHT22;6206;53.100;11.098;2022-08-03T09:44:03;29.70;99.90
12287;DHT22;6206;53.100;11.098;2022-08-03T09:46:30;29.70;99.90
12287;DHT22;6206;53.100;11.098;2022-08-03T09:49:10;29.90;99.90
12287;DHT22;6206;53.100;11.098;2022-08-03T09:51:37;30.00;99.90
12287;DHT22;6206;53.100;11.098;2022-08-03T09:54:05;31.00;99.90
12287;DHT22;6206;53.100;11.098;2022-08-03T09:56:39;30.00;99.90
12287;DHT22;6206;53.100;11.098;2022-08-03T09:59:07;30.10;99.90
12287;DHT22;6206;53.100;11.098;2022-08-03T10:01:35;29.90;99.90
12287;DHT22;6206;53.100;11.098;2022-08-03T10:04:02;30.40;99.90
12287;DHT22;6206;53.100;11.098;2022-08-03T10:06:28;30.10;99.90
12287;DHT22;6206;53.100;11.098;2022-08-03T10:09:06;30.50;99.90
12287;DHT22;6206;53.100;11.098;2022-08-03T10:11:33;32.10;99.90
12287;DHT22;6206;53.100;11.098;2022-08-03T10:14:01;30.80;99.90
12287;DHT22;6206;53.100;11.098;2022-08-03T10:16:33;30.00;99.90
12287;DHT22;6206;53.100;11.098;2022-08-03T10:19:01;32.40;99.90
12287;DHT22;6206;53.100;11.098;2022-08-03T10:21:31;29.90;99.90
12287;DHT22;6206;53.100;11.098;2022-08-03T10:24:01;31.20;99.90
12287;DHT22;6206;53.100;11.098;2022-08-03T10:26:30;29.80;99.90
12287;DHT22;6206;53.100;11.098;2022-08-03T10:28:59;29.80;99.90
12287;DHT22;6206;53.100;11.098;2022-08-03T10:31:33;29.90;99.90
12287;DHT22;6206;53.100;11.098;2022-08-03T10:34:01;32.20;99.90
12287;DHT22;6206;53.100;11.098;2022-08-03T10:36:30;30.30;99.90
12287;DHT22;6206;53.100;11.098;2022-08-03T10:38:58;30.50;99.90
12287;DHT22;6206;53.100;11.098;2022-08-03T10:41:26;30.40;99.90
12287;DHT22;6206;53.100;11.098;2022-08-03T10:43:57;32.10;99.90
12287;DHT22;6206;53.100;11.098;2022-08-03T10:46:27;30.50;99.90
12287;DHT22;6206;53.100;11.098;2022-08-03T10:48:55;30.40;99.90
12287;DHT22;6206;53.100;11.098;2022-08-03T10:51:22;30.40;99.90
12287;DHT22;6206;53.100;11.098;2022-08-03T10:53:49;30.90;99.90
12287;DHT22;6206;53.100;11.098;2022-08-03T10:59:19;30.40;99.90
12287;DHT22;6206;53.100;11.098;2022-08-03T11:02:05;30.60;99.90
12287;DHT22;6206;53.100;11.098;2022-08-03T11:04:35;30.60;99.90
12287;DHT22;6206;53.100;11.098;2022-08-03T11:07:17;30.70;99.90
12287;DHT22;6206;53.100;11.098;2022-08-03T11:09:44;30.70;99.90
12287;DHT22;6206;53.100;11.098;2022-08-03T11:12:20;30.80;99.90
12287;DHT22;6206;53.100;11.098;2022-08-03T11:14:47;30.80;99.90
12287;DHT22;6206;53.100;11.098;2022-08-03T11:17:14;30.80;99.90
12287;DHT22;6206;53.100;11.098;2022-08-03T11:19:45;30.80;99.90
12287;DHT22;6206;53.100;11.098;2022-08-03T11:22:12;32.10;99.90
12287;DHT22;6206;53.100;11.098;2022-08-03T11:24:58;31.70;99.90
12287;DHT22;6206;53.100;11.098;2022-08-03T11:27:27;31.20;99.90
12287;DHT22;6206;53.100;11.098;2022-08-03T11:29:56;32.50;99.90
12287;DHT22;6206;53.100;11.098;2022-08-03T11:32:57;31.40;99.90
12287;DHT22;6206;53.100;11.098;2022-08-03T11:35:27;31.40;99.90
12287;DHT22;6206;53.100;11.098;2022-08-03T11:38:04;31.50;99.90
12287;DHT22;6206;53.100;11.098;2022-08-03T11:40:32;31.60;99.90
12287;DHT22;6206;53.100;11.098;2022-08-03T11:42:59;31.60;99.90
12287;DHT22;6206;53.100;11.098;2022-08-03T11:45:26;31.40;99.90
12287;DHT22;6206;53.100;11.098;2022-08-03T11:47:54;31.00;99.90
12287;DHT22;6206;53.100;11.098;2022-08-03T11:50:23;31.90;99.90
12287;DHT22;6206;53.100;11.098;2022-08-03T11:52:51;31.40;99.90
12287;DHT22;6206;53.100;11.098;2022-08-03T11:55:19;31.60;99.90
12287;DHT22;6206;53.100;11.098;2022-08-03T11:57:46;31.60;99.90
12287;DHT22;6206;53.100;11.098;2022-08-03T12:00:27;31.70;99.90
12287;DHT22;6206;53.100;11.098;2022-08-03T12:02:56;32.00;99.90
12287;DHT22;6206;53.100;11.098;2022-08-03T12:08:31;32.00;99.90
12287;DHT22;6206;53.100;11.098;2022-08-03T12:11:00;32.00;99.90
12287;DHT22;6206;53.100;11.098;2022-08-03T12:13:36;31.90;99.90
12287;DHT22;6206;53.100;11.098;2022-08-03T12:16:03;31.80;99.90
12287;DHT22;6206;53.100;11.098;2022-08-03T12:18:30;31.80;99.90
12287;DHT22;6206;53.100;11.098;2022-08-03T12:21:03;31.80;99.90
12287;DHT22;6206;53.100;11.098;2022-08-03T12:23:32;32.10;99.90
12287;DHT22;6206;53.100;11.098;2022-08-03T12:26:03;31.80;99.90
12287;DHT22;6206;53.100;11.098;2022-08-03T12:28:30;32.20;99.90
12287;DHT22;6206;53.100;11.098;2022-08-03T12:31:00;32.20;99.90
12287;DHT22;6206;53.100;11.098;2022-08-03T12:33:27;32.40;99.90
12287;DHT22;6206;53.100;11.098;2022-08-03T12:36:05;32.50;99.90
12287;DHT22;6206;53.100;11.098;2022-08-03T12:38:35;32.50;99.90
12287;DHT22;6206;53.100;11.098;2022-08-03T12:41:05;32.50;99.90
12287;DHT22;6206;53.100;11.098;2022-08-03T12:43:33;32.70;99.90
12287;DHT22;6206;53.100;11.098;2022-08-03T12:46:11;32.70;99.50
12287;DHT22;6206;53.100;11.098;2022-08-03T12:49:07;32.90;99.90
12287;DHT22;6206;53.100;11.098;2022-08-03T12:51:36;32.70;99.90
12287;DHT22;6206;53.100;11.098;2022-08-03T12:54:04;33.60;99.80
12287;DHT22;6206;53.100;11.098;2022-08-03T12:56:31;32.90;99.60
12287;DHT22;6206;53.100;11.098;2022-08-03T12:58:58;33.00;99.10
12287;DHT22;6206;53.100;11.098;2022-08-03T13:01:25;33.30;99.30
12287;DHT22;6206;53.100;11.098;2022-08-03T13:03:54;33.50;98.70
12287;DHT22;6206;53.100;11.098;2022-08-03T13:06:22;33.60;98.90
12287;DHT22;6206;53.100;11.098;2022-08-03T13:08:49;33.70;98.30
12287;DHT22;6206;53.100;11.098;2022-08-03T13:11:22;33.80;99.10
12287;DHT22;6206;53.100;11.098;2022-08-03T13:13:49;34.00;98.60
12287;DHT22;6206;53.100;11.098;2022-08-03T13:16:18;34.10;98.80
12287;DHT22;6206;53.100;11.098;2022-08-03T13:18:46;34.20;98.80
12287;DHT22;6206;53.100;11.098;2022-08-03T13:21:14;34.20;98.20
12287;DHT22;6206;53.100;11.098;2022-08-03T13:23:41;34.20;98.00
12287;DHT22;6206;53.100;11.098;2022-08-03T13:26:08;34.20;97.30
12287;DHT22;6206;53.100;11.098;2022-08-03T13:28:36;34.30;96.90
12287;DHT22;6206;53.100;11.098;2022-08-03T13:31:03;34.70;96.10
12287;DHT22;6206;53.100;11.098;2022-08-03T13:33:30;35.20;96.10
12287;DHT22;6206;53.100;11.098;2022-08-03T13:35:56;36.40;94.60
12287;DHT22;6206;53.100;11.098;2022-08-03T13:38:23;37.30;93.20
12287;DHT22;6206;53.100;11.098;2022-08-03T13:40:50;38.70;91.70
12287;DHT22;6206;53.100;11.098;2022-08-03T13:43:17;38.80;90.20
12287;DHT22;6206;53.100;11.098;2022-08-03T13:45:45;38.80;89.70
12287;DHT22;6206;53.100;11.098;2022-08-03T13:48:11;39.60;86.80
12287;DHT22;6206;53.100;11.098;2022-08-03T13:50:38;40.30;83.90
12287;DHT22;6206;53.100;11.098;2022-08-03T13:53:05;39.70;82.50
12287;DHT22;6206;53.100;11.098;2022-08-03T13:55:31;39.40;81.40
12287;DHT22;6206;53.100;11.098;2022-08-03T13:57:58;39.40;80.80
12287;DHT22;6206;53.100;11.098;2022-08-03T14:00:25;39.30;79.70
12287;DHT22;6206;53.100;11.098;2022-08-03T14:02:52;39.00;81.10
12287;DHT22;6206;53.100;11.098;2022-08-03T14:05:19;38.80;79.80
12287;DHT22;6206;53.100;11.098;2022-08-03T14:07:46;39.20;77.60
12287;DHT22;6206;53.100;11.098;2022-08-03T14:10:13;39.30;76.50
12287;DHT22;6206;53.100;11.098;2022-08-03T14:12:41;39.90;76.90
12287;DHT22;6206;53.100;11.098;2022-08-03T14:15:09;40.50;75.70
12287;DHT22;6206;53.100;11.098;2022-08-03T14:17:37;41.30;73.30
12287;DHT22;6206;53.100;11.098;2022-08-03T14:20:06;40.50;72.50
12287;DHT22;6206;53.100;11.098;2022-08-03T14:22:33;38.50;73.50
12287;DHT22;6206;53.100;11.098;2022-08-03T14:25:00;36.90;76.70
12287;DHT22;6206;53.100;11.098;2022-08-03T14:27:26;36.60;77.30
12287;DHT22;6206;53.100;11.098;2022-08-03T14:29:53;36.70;75.00
12287;DHT22;6206;53.100;11.098;2022-08-03T14:32:24;36.50;75.40
12287;DHT22;6206;53.100;11.098;2022-08-03T14:34:50;36.30;75.90
12287;DHT22;6206;53.100;11.098;2022-08-03T14:37:18;36.50;76.10
12287;DHT22;6206;53.100;11.098;2022-08-03T14:39:45;36.00;76.70
12287;DHT22;6206;53.100;11.098;2022-08-03T14:42:13;36.10;78.20
12287;DHT22;6206;53.100;11.098;2022-08-03T14:44:39;36.20;77.40
12287;DHT22;6206;53.100;11.098;2022-08-03T14:47:06;35.60;78.30
12287;DHT22;6206;53.100;11.098;2022-08-03T14:49:33;35.70;78.20
12287;DHT22;6206;53.100;11.098;2022-08-03T14:51:59;35.90;78.60
12287;DHT22;6206;53.100;11.098;2022-08-03T14:54:27;36.20;77.90
12287;DHT22;6206;53.100;11.098;2022-08-03T14:56:55;36.30;77.20
12287;DHT22;6206;53.100;11.098;2022-08-03T14:59:22;36.20;80.30
12287;DHT22;6206;53.100;11.098;2022-08-03T15:01:49;36.10;80.00
12287;DHT22;6206;53.100;11.098;2022-08-03T15:04:15;35.50;81.10
12287;DHT22;6206;53.100;11.098;2022-08-03T15:06:42;35.70;83.20
12287;DHT22;6206;53.100;11.098;2022-08-03T15:09:09;36.70;79.70
12287;DHT22;6206;53.100;11.098;2022-08-03T15:11:36;36.80;77.10
12287;DHT22;6206;53.100;11.098;2022-08-03T15:14:03;36.80;76.20
12287;DHT22;6206;53.100;11.098;2022-08-03T15:16:30;36.40;76.30
12287;DHT22;6206;53.100;11.098;2022-08-03T15:18:57;36.80;76.50
12287;DHT22;6206;53.100;11.098;2022-08-03T15:21:25;37.80;76.10
12287;DHT22;6206;53.100;11.098;2022-08-03T15:23:51;38.40;73.20
12287;DHT22;6206;53.100;11.098;2022-08-03T15:26:18;38.70;71.90
12287;DHT22;6206;53.100;11.098;2022-08-03T15:28:46;39.00;71.20
12287;DHT22;6206;53.100;11.098;2022-08-03T15:31:13;40.60;72.10
12287;DHT22;6206;53.100;11.098;2022-08-03T15:33:39;41.90;69.10
12287;DHT22;6206;53.100;11.098;2022-08-03T15:36:06;40.70;68.10
12287;DHT22;6206;53.100;11.098;2022-08-03T15:38:33;40.10;67.30
12287;DHT22;6206;53.100;11.098;2022-08-03T15:40:59;39.30;68.00
12287;DHT22;6206;53.100;11.098;2022-08-03T15:43:26;37.70;70.60
12287;DHT22;6206;53.100;11.098;2022-08-03T15:45:54;35.90;72.30
12287;DHT22;6206;53.100;11.098;2022-08-03T15:48:21;35.30;76.50
12287;DHT22;6206;53.100;11.098;2022-08-03T15:50:49;35.30;75.60